sensor_id;sensor_type;location;lat;lon;timestamp;P1;durP1;ratioP1;P2;durP2;ratioP2
73015;SDS011;61893;50.074;14.440;2023-02-11T00:02:12;35.10;;;16.87;;
73015;SDS011;61893;50.074;14.440;2023-02-11T00:04:53;31.60;;;15.23;;
73015;SDS011;61893;50.074;14.440;2023-02-11T00:07:36;35.33;;;16.67;;
73015;SDS011;61893;50.074;14.440;2023-02-11T00:10:02;32.53;;;16.23;;
73015;SDS011;61893;50.074;14.440;2023-02-11T00:12:38;36.40;;;16.13;;
73015;SDS011;61893;50.074;14.440;2023-02-11T00:15:10;38.83;;;17.63;;
73015;SDS011;61893;50.074;14.440;2023-02-11T00:17:48;34.60;;;16.33;;
73015;SDS011;61893;50.074;14.440;2023-02-11T00:20:33;32.47;;;16.00;;
73015;SDS011;61893;50.074;14.440;2023-02-11T00:23:02;41.43;;;16.93;;
73015;SDS011;61893;50.074;14.440;2023-02-11T00:25:43;46.70;;;17.73;;
73015;SDS011;61893;50.074;14.440;2023-02-11T00:28:10;39.13;;;16.17;;
73015;SDS011;61893;50.074;14.440;2023-02-11T00:30:52;33.25;;;16.63;;
73015;SDS011;61893;50.074;14.440;2023-02-11T00:34:09;38.60;;;16.02;;
73015;SDS011;61893;50.074;14.440;2023-02-11T00:37:30;33.87;;;15.57;;
73015;SDS011;61893;50.074;14.440;2023-02-11T00:40:27;33.30;;;14.23;;
73015;SDS011;61893;50.074;14.440;2023-02-11T00:43:20;32.03;;;15.80;;
73015;SDS011;61893;50.074;14.440;2023-02-11T00:46:15;38.35;;;17.63;;
73015;SDS011;61893;50.074;14.440;2023-02-11T00:48:59;38.42;;;17.35;;
73015;SDS011;61893;50.074;14.440;2023-02-11T00:52:14;33.55;;;15.65;;
73015;SDS011;61893;50.074;14.440;2023-02-11T00:55:03;32.40;;;17.20;;
73015;SDS011;61893;50.074;14.440;2023-02-11T00:57:55;43.93;;;18.40;;
73015;SDS011;61893;50.074;14.440;2023-02-11T01:00:33;43.30;;;18.20;;
73015;SDS011;61893;50.074;14.440;2023-02-11T01:03:56;42.07;;;18.53;;
73015;SDS011;61893;50.074;14.440;2023-02-11T01:06:42;43.73;;;19.13;;
73015;SDS011;61893;50.074;14.440;2023-02-11T01:10:17;39.50;;;17.70;;
73015;SDS011;61893;50.074;14.440;2023-02-11T01:12:46;40.50;;;18.77;;
73015;SDS011;61893;50.074;14.440;2023-02-11T01:15:26;40.70;;;17.63;;
73015;SDS011;61893;50.074;14.440;2023-02-11T01:18:21;43.30;;;19.17;;
73015;SDS011;61893;50.074;14.440;2023-02-11T01:20:50;42.60;;;19.27;;
73015;SDS011;61893;50.074;14.440;2023-02-11T01:23:33;49.83;;;19.60;;
73015;SDS011;61893;50.074;14.440;2023-02-11T01:26:11;40.13;;;18.27;;
73015;SDS011;61893;50.074;14.440;2023-02-11T01:29:02;42.47;;;17.60;;
73015;SDS011;61893;50.074;14.440;2023-02-11T01:31:34;34.53;;;16.87;;
73015;SDS011;61893;50.074;14.440;2023-02-11T01:34:02;46.53;;;19.17;;
73015;SDS011;61893;50.074;14.440;2023-02-11T01:36:45;38.17;;;16.33;;
73015;SDS011;61893;50.074;14.440;2023-02-11T01:39:14;43.20;;;19.07;;
73015;SDS011;61893;50.074;14.440;2023-02-11T01:41:43;45.80;;;18.93;;
73015;SDS011;61893;50.074;14.440;2023-02-11T01:44:30;43.93;;;19.80;;
73015;SDS011;61893;50.074;14.440;2023-02-11T01:46:55;38.03;;;18.87;;
73015;SDS011;61893;50.074;14.440;2023-02-11T01:49:31;41.27;;;18.50;;
73015;SDS011;61893;50.074;14.440;2023-02-11T01:52:02;51.37;;;21.87;;
73015;SDS011;61893;50.074;14.440;2023-02-11T01:54:43;49.03;;;20.63;;
73015;SDS011;61893;50.074;14.440;2023-02-11T01:57:47;48.43;;;20.40;;
73015;SDS011;61893;50.074;14.440;2023-02-11T02:00:45;49.27;;;22.17;;
73015;SDS011;61893;50.074;14.440;2023-02-11T02:03:50;41.17;;;19.37;;
73015;SDS011;61893;50.074;14.440;2023-02-11T02:06:49;44.33;;;20.50;;
73015;SDS011;61893;50.074;14.440;2023-02-11T02:09:33;40.87;;;17.47;;
73015;SDS011;61893;50.074;14.440;2023-02-11T02:12:35;42.73;;;17.90;;
73015;SDS011;61893;50.074;14.440;2023-02-11T02:15:34;44.80;;;19.77;;
73015;SDS011;61893;50.074;14.440;2023-02-11T02:24:37;43.90;;;18.13;;
73015;SDS011;61893;50.074;14.440;2023-02-11T02:35:08;37.33;;;16.17;;
73015;SDS011;61893;50.074;14.440;2023-02-11T02:40:35;42.50;;;18.37;;
73015;SDS011;61893;50.074;14.440;2023-02-11T02:43:45;35.87;;;17.17;;
73015;SDS011;61893;50.074;14.440;2023-02-11T02:46:44;43.77;;;18.93;;
73015;SDS011;61893;50.074;14.440;2023-02-11T02:49:27;37.23;;;17.60;;
73015;SDS011;61893;50.074;14.440;2023-02-11T02:57:55;41.90;;;19.90;;
73015;SDS011;61893;50.074;14.440;2023-02-11T03:00:44;39.57;;;17.63;;
73015;SDS011;61893;50.074;14.440;2023-02-11T03:06:13;35.50;;;16.60;;
73015;SDS011;61893;50.074;14.440;2023-02-11T03:08:54;31.80;;;15.83;;
73015;SDS011;61893;50.074;14.440;2023-02-11T03:11:40;36.00;;;15.80;;
73015;SDS011;61893;50.074;14.440;2023-02-11T03:14:07;31.53;;;15.60;;
73015;SDS011;61893;50.074;14.440;2023-02-11T03:16:58;34.67;;;16.23;;
73015;SDS011;61893;50.074;14.440;2023-02-11T03:19:31;35.67;;;16.67;;
73015;SDS011;61893;50.074;14.440;2023-02-11T03:22:12;30.03;;;14.10;;
73015;SDS011;61893;50.074;14.440;2023-02-11T03:24:44;41.13;;;17.27;;
73015;SDS011;61893;50.074;14.440;2023-02-11T03:27:20;36.53;;;16.87;;
73015;SDS011;61893;50.074;14.440;2023-02-11T03:34:52;40.87;;;18.60;;
73015;SDS011;61893;50.074;14.440;2023-02-11T03:37:32;37.93;;;18.37;;
73015;SDS011;61893;50.074;14.440;2023-02-11T03:40:20;36.97;;;18.67;;
73015;SDS011;61893;50.074;14.440;2023-02-11T03:43:04;38.73;;;17.63;;
73015;SDS011;61893;50.074;14.440;2023-02-11T03:45:35;37.17;;;17.37;;
73015;SDS011;61893;50.074;14.440;2023-02-11T03:48:04;38.17;;;16.00;;
73015;SDS011;61893;50.074;14.440;2023-02-11T03:50:51;33.17;;;16.43;;
73015;SDS011;61893;50.074;14.440;2023-02-11T03:53:21;34.80;;;16.80;;
73015;SDS011;61893;50.074;14.440;2023-02-11T03:56:12;32.73;;;14.90;;
73015;SDS011;61893;50.074;14.440;2023-02-11T03:58:55;39.93;;;17.20;;
73015;SDS011;61893;50.074;14.440;2023-02-11T04:01:32;40.72;;;14.93;;
73015;SDS011;61893;50.074;14.440;2023-02-11T04:04:11;31.57;;;14.97;;
73015;SDS011;61893;50.074;14.440;2023-02-11T04:06:37;31.97;;;15.17;;
73015;SDS011;61893;50.074;14.440;2023-02-11T04:09:21;33.03;;;15.05;;
73015;SDS011;61893;50.074;14.440;2023-02-11T04:12:01;37.03;;;16.35;;
73015;SDS011;61893;50.074;14.440;2023-02-11T04:14:40;31.95;;;14.63;;
73015;SDS011;61893;50.074;14.440;2023-02-11T04:17:08;31.73;;;15.60;;
73015;SDS011;61893;50.074;14.440;2023-02-11T04:19:56;35.80;;;15.47;;
73015;SDS011;61893;50.074;14.440;2023-02-11T04:22:29;31.20;;;14.63;;
73015;SDS011;61893;50.074;14.440;2023-02-11T04:25:44;34.77;;;15.97;;
73015;SDS011;61893;50.074;14.440;2023-02-11T04:28:27;33.03;;;15.07;;
73015;SDS011;61893;50.074;14.440;2023-02-11T04:31:28;29.97;;;12.87;;
73015;SDS011;61893;50.074;14.440;2023-02-11T04:34:11;27.67;;;13.30;;
73015;SDS011;61893;50.074;14.440;2023-02-11T04:36:42;33.93;;;15.47;;
73015;SDS011;61893;50.074;14.440;2023-02-11T04:39:14;33.03;;;14.53;;
73015;SDS011;61893;50.074;14.440;2023-02-11T04:41:40;30.60;;;13.43;;
73015;SDS011;61893;50.074;14.440;2023-02-11T04:44:06;33.77;;;15.60;;
73015;SDS011;61893;50.074;14.440;2023-02-11T04:46:50;34.67;;;15.73;;
73015;SDS011;61893;50.074;14.440;2023-02-11T04:49:36;38.77;;;16.27;;
73015;SDS011;61893;50.074;14.440;2023-02-11T04:52:06;35.73;;;15.87;;
73015;SDS011;61893;50.074;14.440;2023-02-11T04:54:52;30.83;;;14.37;;
73015;SDS011;61893;50.074;14.440;2023-02-11T04:57:23;34.67;;;15.97;;
73015;SDS011;61893;50.074;14.440;2023-02-11T05:00:25;33.10;;;15.50;;
73015;SDS011;61893;50.074;14.440;2023-02-11T05:04:21;26.73;;;13.55;;
73015;SDS011;61893;50.074;14.440;2023-02-11T05:10:52;28.07;;;12.87;;
73015;SDS011;61893;50.074;14.440;2023-02-11T05:13:29;28.60;;;13.60;;
73015;SDS011;61893;50.074;14.440;2023-02-11T05:16:16;31.37;;;15.20;;
73015;SDS011;61893;50.074;14.440;2023-02-11T05:18:47;30.77;;;14.77;;
73015;SDS011;61893;50.074;14.440;2023-02-11T05:21:27;28.43;;;14.33;;
73015;SDS011;61893;50.074;14.440;2023-02-11T05:25:40;29.33;;;13.57;;
73015;SDS011;61893;50.074;14.440;2023-02-11T05:29:26;30.73;;;13.83;;
73015;SDS011;61893;50.074;14.440;2023-02-11T05:32:53;31.63;;;14.20;;
73015;SDS011;61893;50.074;14.440;2023-02-11T05:35:20;35.27;;;15.40;;
73015;SDS011;61893;50.074;14.440;2023-02-11T05:37:49;34.70;;;15.03;;
73015;SDS011;61893;50.074;14.440;2023-02-11T05:40:30;29.37;;;14.47;;
73015;SDS011;61893;50.074;14.440;2023-02-11T05:43:32;31.47;;;14.80;;
73015;SDS011;61893;50.074;14.440;2023-02-11T05:45:59;26.73;;;13.30;;
73015;SDS011;61893;50.074;14.440;2023-02-11T05:48:25;29.67;;;14.07;;
73015;SDS011;61893;50.074;14.440;2023-02-11T05:50:51;30.23;;;13.83;;
73015;SDS011;61893;50.074;14.440;2023-02-11T05:53:34;29.60;;;14.07;;
73015;SDS011;61893;50.074;14.440;2023-02-11T05:56:03;34.17;;;15.07;;
73015;SDS011;61893;50.074;14.440;2023-02-11T05:58:42;27.17;;;13.23;;
73015;SDS011;61893;50.074;14.440;2023-02-11T06:01:17;26.67;;;13.00;;
73015;SDS011;61893;50.074;14.440;2023-02-11T06:03:46;28.57;;;14.67;;
73015;SDS011;61893;50.074;14.440;2023-02-11T06:06:29;30.53;;;13.33;;
73015;SDS011;61893;50.074;14.440;2023-02-11T06:09:26;32.07;;;14.77;;
73015;SDS011;61893;50.074;14.440;2023-02-11T06:12:25;29.17;;;14.17;;
73015;SDS011;61893;50.074;14.440;2023-02-11T06:15:44;25.77;;;12.23;;
73015;SDS011;61893;50.074;14.440;2023-02-11T06:18:56;25.87;;;13.60;;
73015;SDS011;61893;50.074;14.440;2023-02-11T06:21:48;26.73;;;12.30;;
73015;SDS011;61893;50.074;14.440;2023-02-11T06:24:48;27.67;;;13.00;;
73015;SDS011;61893;50.074;14.440;2023-02-11T06:27:25;27.10;;;12.90;;
73015;SDS011;61893;50.074;14.440;2023-02-11T06:30:20;30.37;;;13.87;;
73015;SDS011;61893;50.074;14.440;2023-02-11T06:32:52;26.95;;;12.52;;
73015;SDS011;61893;50.074;14.440;2023-02-11T06:35:32;24.00;;;13.13;;
73015;SDS011;61893;50.074;14.440;2023-02-11T06:38:00;27.87;;;14.27;;
73015;SDS011;61893;50.074;14.440;2023-02-11T06:40:26;31.97;;;14.17;;
73015;SDS011;61893;50.074;14.440;2023-02-11T06:43:07;32.43;;;13.37;;
73015;SDS011;61893;50.074;14.440;2023-02-11T06:45:51;28.20;;;13.37;;
73015;SDS011;61893;50.074;14.440;2023-02-11T06:48:20;26.52;;;12.60;;
73015;SDS011;61893;50.074;14.440;2023-02-11T06:51:02;33.47;;;14.27;;
73015;SDS011;61893;50.074;14.440;2023-02-11T06:53:45;26.43;;;13.07;;
73015;SDS011;61893;50.074;14.440;2023-02-11T06:56:29;29.67;;;14.33;;
73015;SDS011;61893;50.074;14.440;2023-02-11T06:59:20;29.40;;;13.67;;
73015;SDS011;61893;50.074;14.440;2023-02-11T07:01:58;33.87;;;13.87;;
73015;SDS011;61893;50.074;14.440;2023-02-11T07:04:41;32.47;;;13.53;;
73015;SDS011;61893;50.074;14.440;2023-02-11T07:07:21;22.80;;;12.37;;
73015;SDS011;61893;50.074;14.440;2023-02-11T07:09:53;30.20;;;13.57;;
73015;SDS011;61893;50.074;14.440;2023-02-11T07:12:19;28.70;;;12.73;;
73015;SDS011;61893;50.074;14.440;2023-02-11T07:14:45;25.53;;;13.07;;
73015;SDS011;61893;50.074;14.440;2023-02-11T07:17:12;27.63;;;13.27;;
73015;SDS011;61893;50.074;14.440;2023-02-11T07:19:43;28.73;;;13.47;;
73015;SDS011;61893;50.074;14.440;2023-02-11T07:22:17;28.47;;;14.33;;
73015;SDS011;61893;50.074;14.440;2023-02-11T07:25:08;27.07;;;12.93;;
73015;SDS011;61893;50.074;14.440;2023-02-11T07:27:40;30.10;;;14.27;;
73015;SDS011;61893;50.074;14.440;2023-02-11T07:30:08;30.83;;;14.17;;
73015;SDS011;61893;50.074;14.440;2023-02-11T07:32:35;25.83;;;12.77;;
73015;SDS011;61893;50.074;14.440;2023-02-11T07:35:06;32.63;;;14.20;;
73015;SDS011;61893;50.074;14.440;2023-02-11T07:37:48;30.90;;;13.47;;
73015;SDS011;61893;50.074;14.440;2023-02-11T07:40:46;29.23;;;13.23;;
73015;SDS011;61893;50.074;14.440;2023-02-11T07:44:01;33.50;;;13.70;;
73015;SDS011;61893;50.074;14.440;2023-02-11T07:46:59;26.47;;;13.23;;
73015;SDS011;61893;50.074;14.440;2023-02-11T07:50:19;25.37;;;12.77;;
73015;SDS011;61893;50.074;14.440;2023-02-11T07:53:12;29.30;;;13.30;;
73015;SDS011;61893;50.074;14.440;2023-02-11T07:56:02;29.33;;;13.17;;
73015;SDS011;61893;50.074;14.440;2023-02-11T07:58:50;27.23;;;13.37;;
73015;SDS011;61893;50.074;14.440;2023-02-11T08:01:38;26.17;;;11.97;;
73015;SDS011;61893;50.074;14.440;2023-02-11T08:04:50;27.70;;;12.30;;
73015;SDS011;61893;50.074;14.440;2023-02-11T08:08:36;27.63;;;12.47;;
73015;SDS011;61893;50.074;14.440;2023-02-11T08:12:20;28.70;;;13.43;;
73015;SDS011;61893;50.074;14.440;2023-02-11T08:15:22;31.40;;;13.15;;
73015;SDS011;61893;50.074;14.440;2023-02-11T08:18:34;29.67;;;13.30;;
73015;SDS011;61893;50.074;14.440;2023-02-11T08:21:30;25.43;;;12.63;;
73015;SDS011;61893;50.074;14.440;2023-02-11T08:24:51;27.30;;;12.57;;
73015;SDS011;61893;50.074;14.440;2023-02-11T08:27:18;29.13;;;13.67;;
73015;SDS011;61893;50.074;14.440;2023-02-11T08:30:30;26.87;;;13.50;;
73015;SDS011;61893;50.074;14.440;2023-02-11T08:33:08;25.50;;;13.02;;
73015;SDS011;61893;50.074;14.440;2023-02-11T08:36:00;31.10;;;13.67;;
73015;SDS011;61893;50.074;14.440;2023-02-11T08:38:49;24.43;;;13.57;;
73015;SDS011;61893;50.074;14.440;2023-02-11T08:42:08;21.73;;;11.97;;
73015;SDS011;61893;50.074;14.440;2023-02-11T08:45:19;29.07;;;12.80;;
73015;SDS011;61893;50.074;14.440;2023-02-11T08:48:12;23.50;;;12.43;;
73015;SDS011;61893;50.074;14.440;2023-02-11T08:51:20;28.00;;;13.40;;
73015;SDS011;61893;50.074;14.440;2023-02-11T08:53:49;29.40;;;13.38;;
73015;SDS011;61893;50.074;14.440;2023-02-11T08:56:16;29.33;;;12.90;;
73015;SDS011;61893;50.074;14.440;2023-02-11T08:58:44;32.60;;;13.67;;
73015;SDS011;61893;50.074;14.440;2023-02-11T09:01:16;30.40;;;15.17;;
73015;SDS011;61893;50.074;14.440;2023-02-11T09:04:00;29.30;;;13.70;;
73015;SDS011;61893;50.074;14.440;2023-02-11T09:06:41;26.90;;;13.07;;
73015;SDS011;61893;50.074;14.440;2023-02-11T09:09:11;26.33;;;15.07;;
73015;SDS011;61893;50.074;14.440;2023-02-11T09:11:39;27.70;;;13.13;;
73015;SDS011;61893;50.074;14.440;2023-02-11T09:14:09;26.47;;;13.53;;
73015;SDS011;61893;50.074;14.440;2023-02-11T09:16:41;27.20;;;12.53;;
73015;SDS011;61893;50.074;14.440;2023-02-11T09:19:08;27.53;;;13.87;;
73015;SDS011;61893;50.074;14.440;2023-02-11T09:21:34;27.17;;;13.00;;
73015;SDS011;61893;50.074;14.440;2023-02-11T09:24:00;26.80;;;13.57;;
73015;SDS011;61893;50.074;14.440;2023-02-11T09:26:31;32.67;;;14.10;;
73015;SDS011;61893;50.074;14.440;2023-02-11T09:28:59;23.07;;;12.97;;
73015;SDS011;61893;50.074;14.440;2023-02-11T09:31:30;30.57;;;14.03;;
73015;SDS011;61893;50.074;14.440;2023-02-11T09:33:58;26.67;;;13.57;;
73015;SDS011;61893;50.074;14.440;2023-02-11T09:36:28;25.20;;;12.93;;
73015;SDS011;61893;50.074;14.440;2023-02-11T09:38:57;26.17;;;13.27;;
73015;SDS011;61893;50.074;14.440;2023-02-11T09:44:17;25.27;;;12.27;;
73015;SDS011;61893;50.074;14.440;2023-02-11T09:46:49;29.88;;;13.45;;
73015;SDS011;61893;50.074;14.440;2023-02-11T09:51:56;25.43;;;12.17;;
73015;SDS011;61893;50.074;14.440;2023-02-11T09:55:00;30.10;;;12.63;;
73015;SDS011;61893;50.074;14.440;2023-02-11T09:57:49;25.70;;;12.80;;
73015;SDS011;61893;50.074;14.440;2023-02-11T10:00:20;31.03;;;12.70;;
73015;SDS011;61893;50.074;14.440;2023-02-11T10:22:50;23.87;;;13.73;;
73015;SDS011;61893;50.074;14.440;2023-02-11T10:25:32;29.33;;;14.40;;
73015;SDS011;61893;50.074;14.440;2023-02-11T10:28:09;31.43;;;14.47;;
73015;SDS011;61893;50.074;14.440;2023-02-11T10:31:15;29.00;;;13.57;;
73015;SDS011;61893;50.074;14.440;2023-02-11T10:33:59;28.70;;;12.90;;
73015;SDS011;61893;50.074;14.440;2023-02-11T10:36:44;25.00;;;12.97;;
73015;SDS011;61893;50.074;14.440;2023-02-11T10:39:25;28.00;;;13.93;;
73015;SDS011;61893;50.074;14.440;2023-02-11T10:41:56;24.87;;;12.90;;
73015;SDS011;61893;50.074;14.440;2023-02-11T10:44:31;29.58;;;13.02;;
73015;SDS011;61893;50.074;14.440;2023-02-11T10:47:12;23.60;;;12.52;;
73015;SDS011;61893;50.074;14.440;2023-02-11T10:49:46;24.97;;;11.67;;
73015;SDS011;61893;50.074;14.440;2023-02-11T10:52:23;28.07;;;14.27;;
73015;SDS011;61893;50.074;14.440;2023-02-11T10:55:14;27.27;;;12.70;;
73015;SDS011;61893;50.074;14.440;2023-02-11T10:58:03;26.63;;;12.93;;
73015;SDS011;61893;50.074;14.440;2023-02-11T11:00:44;31.57;;;15.43;;
73015;SDS011;61893;50.074;14.440;2023-02-11T11:03:49;28.17;;;13.17;;
73015;SDS011;61893;50.074;14.440;2023-02-11T11:06:36;30.90;;;13.77;;
73015;SDS011;61893;50.074;14.440;2023-02-11T11:09:02;32.15;;;13.93;;
73015;SDS011;61893;50.074;14.440;2023-02-11T11:11:50;28.57;;;13.43;;
73015;SDS011;61893;50.074;14.440;2023-02-11T11:14:22;24.13;;;11.93;;
73015;SDS011;61893;50.074;14.440;2023-02-11T11:16:53;25.80;;;13.37;;
73015;SDS011;61893;50.074;14.440;2023-02-11T11:19:37;23.75;;;11.98;;
73015;SDS011;61893;50.074;14.440;2023-02-11T11:22:04;30.63;;;13.90;;
73015;SDS011;61893;50.074;14.440;2023-02-11T11:24:53;30.07;;;13.90;;
73015;SDS011;61893;50.074;14.440;2023-02-11T11:27:36;27.17;;;13.32;;
73015;SDS011;61893;50.074;14.440;2023-02-11T11:30:14;23.33;;;12.77;;
73015;SDS011;61893;50.074;14.440;2023-02-11T11:32:43;27.77;;;12.50;;
73015;SDS011;61893;50.074;14.440;2023-02-11T11:35:35;25.47;;;12.77;;
73015;SDS011;61893;50.074;14.440;2023-02-11T11:38:16;26.57;;;12.77;;
73015;SDS011;61893;50.074;14.440;2023-02-11T11:47:14;25.63;;;12.33;;
73015;SDS011;61893;50.074;14.440;2023-02-11T11:52:58;24.90;;;12.65;;
73015;SDS011;61893;50.074;14.440;2023-02-11T11:55:33;24.90;;;12.50;;
73015;SDS011;61893;50.074;14.440;2023-02-11T11:58:16;25.73;;;12.57;;
73015;SDS011;61893;50.074;14.440;2023-02-11T12:08:45;27.73;;;13.03;;
73015;SDS011;61893;50.074;14.440;2023-02-11T12:14:20;29.27;;;13.73;;
73015;SDS011;61893;50.074;14.440;2023-02-11T12:25:31;23.10;;;12.30;;
73015;SDS011;61893;50.074;14.440;2023-02-11T12:28:04;25.40;;;12.53;;
73015;SDS011;61893;50.074;14.440;2023-02-11T12:33:53;24.57;;;12.97;;
73015;SDS011;61893;50.074;14.440;2023-02-11T12:36:52;25.90;;;12.80;;
73015;SDS011;61893;50.074;14.440;2023-02-11T12:59:16;28.63;;;14.27;;
73015;SDS011;61893;50.074;14.440;2023-02-11T13:01:55;26.23;;;13.67;;
73015;SDS011;61893;50.074;14.440;2023-02-11T13:04:28;25.83;;;12.60;;
73015;SDS011;61893;50.074;14.440;2023-02-11T13:07:02;28.20;;;12.90;;
73015;SDS011;61893;50.074;14.440;2023-02-11T13:09:44;28.80;;;13.17;;
73015;SDS011;61893;50.074;14.440;2023-02-11T13:12:18;24.90;;;13.17;;
73015;SDS011;61893;50.074;14.440;2023-02-11T13:15:17;29.03;;;12.50;;
73015;SDS011;61893;50.074;14.440;2023-02-11T13:20:52;30.23;;;14.17;;
73015;SDS011;61893;50.074;14.440;2023-02-11T13:23:28;25.77;;;12.93;;
73015;SDS011;61893;50.074;14.440;2023-02-11T13:26:32;23.53;;;11.83;;
73015;SDS011;61893;50.074;14.440;2023-02-11T13:32:13;28.43;;;13.77;;
73015;SDS011;61893;50.074;14.440;2023-02-11T13:34:57;24.70;;;12.20;;
73015;SDS011;61893;50.074;14.440;2023-02-11T13:37:25;31.30;;;13.93;;
73015;SDS011;61893;50.074;14.440;2023-02-11T13:42:56;24.40;;;11.60;;
73015;SDS011;61893;50.074;14.440;2023-02-11T13:45:45;26.23;;;13.20;;
73015;SDS011;61893;50.074;14.440;2023-02-11T13:48:16;23.67;;;12.80;;
73015;SDS011;61893;50.074;14.440;2023-02-11T13:50:58;23.88;;;12.23;;
73015;SDS011;61893;50.074;14.440;2023-02-11T13:53:52;23.73;;;12.13;;
73015;SDS011;61893;50.074;14.440;2023-02-11T13:56:44;24.77;;;12.17;;
73015;SDS011;61893;50.074;14.440;2023-02-11T13:59:48;24.23;;;12.20;;
73015;SDS011;61893;50.074;14.440;2023-02-11T14:10:56;28.23;;;13.32;;
73015;SDS011;61893;50.074;14.440;2023-02-11T14:16:17;26.17;;;11.60;;
73015;SDS011;61893;50.074;14.440;2023-02-11T14:19:03;25.17;;;13.10;;
73015;SDS011;61893;50.074;14.440;2023-02-11T14:21:36;27.23;;;13.03;;
73015;SDS011;61893;50.074;14.440;2023-02-11T14:27:00;24.00;;;12.30;;
73015;SDS011;61893;50.074;14.440;2023-02-11T14:35:22;22.40;;;10.77;;
73015;SDS011;61893;50.074;14.440;2023-02-11T14:41:21;23.00;;;11.40;;
73015;SDS011;61893;50.074;14.440;2023-02-11T14:43:51;26.47;;;12.17;;
73015;SDS011;61893;50.074;14.440;2023-02-11T14:46:36;25.00;;;10.90;;
73015;SDS011;61893;50.074;14.440;2023-02-11T14:49:26;24.87;;;12.43;;
73015;SDS011;61893;50.074;14.440;2023-02-11T14:51:53;28.37;;;12.30;;
73015;SDS011;61893;50.074;14.440;2023-02-11T14:54:24;26.03;;;12.53;;
73015;SDS011;61893;50.074;14.440;2023-02-11T14:59:30;24.63;;;11.83;;
73015;SDS011;61893;50.074;14.440;2023-02-11T15:03:54;22.10;;;11.67;;
73015;SDS011;61893;50.074;14.440;2023-02-11T15:07:01;20.77;;;10.63;;
73015;SDS011;61893;50.074;14.440;2023-02-11T15:11:52;26.47;;;12.87;;
73015;SDS011;61893;50.074;14.440;2023-02-11T15:14:23;27.37;;;11.83;;
73015;SDS011;61893;50.074;14.440;2023-02-11T15:17:00;22.37;;;11.50;;
73015;SDS011;61893;50.074;14.440;2023-02-11T15:19:38;22.20;;;11.27;;
73015;SDS011;61893;50.074;14.440;2023-02-11T15:22:22;25.93;;;12.73;;
73015;SDS011;61893;50.074;14.440;2023-02-11T15:27:51;24.40;;;11.27;;
73015;SDS011;61893;50.074;14.440;2023-02-11T15:32:45;25.20;;;12.30;;
73015;SDS011;61893;50.074;14.440;2023-02-11T15:35:12;25.13;;;11.93;;
73015;SDS011;61893;50.074;14.440;2023-02-11T15:37:38;24.80;;;11.57;;
73015;SDS011;61893;50.074;14.440;2023-02-11T15:40:10;22.63;;;12.23;;
73015;SDS011;61893;50.074;14.440;2023-02-11T15:42:36;19.57;;;10.83;;
73015;SDS011;61893;50.074;14.440;2023-02-11T15:47:50;24.57;;;11.90;;
73015;SDS011;61893;50.074;14.440;2023-02-11T15:50:31;26.80;;;12.27;;
73015;SDS011;61893;50.074;14.440;2023-02-11T15:53:01;25.50;;;12.47;;
73015;SDS011;61893;50.074;14.440;2023-02-11T15:55:50;24.07;;;12.50;;
73015;SDS011;61893;50.074;14.440;2023-02-11T15:58:18;22.27;;;11.73;;
73015;SDS011;61893;50.074;14.440;2023-02-11T16:00:47;25.57;;;12.03;;
73015;SDS011;61893;50.074;14.440;2023-02-11T16:03:24;25.53;;;12.27;;
73015;SDS011;61893;50.074;14.440;2023-02-11T16:06:17;26.45;;;12.10;;
73015;SDS011;61893;50.074;14.440;2023-02-11T16:09:02;25.17;;;13.17;;
73015;SDS011;61893;50.074;14.440;2023-02-11T16:19:22;25.50;;;10.53;;
73015;SDS011;61893;50.074;14.440;2023-02-11T16:22:08;20.50;;;11.07;;
73015;SDS011;61893;50.074;14.440;2023-02-11T16:24:38;22.90;;;11.60;;
73015;SDS011;61893;50.074;14.440;2023-02-11T16:27:17;21.93;;;10.87;;
73015;SDS011;61893;50.074;14.440;2023-02-11T16:29:54;21.13;;;11.97;;
73015;SDS011;61893;50.074;14.440;2023-02-11T16:32:26;21.47;;;10.83;;
73015;SDS011;61893;50.074;14.440;2023-02-11T16:35:09;23.40;;;11.03;;
73015;SDS011;61893;50.074;14.440;2023-02-11T16:37:36;21.93;;;10.67;;
73015;SDS011;61893;50.074;14.440;2023-02-11T16:40:20;19.97;;;11.00;;
73015;SDS011;61893;50.074;14.440;2023-02-11T16:43:02;22.97;;;11.63;;
73015;SDS011;61893;50.074;14.440;2023-02-11T16:45:28;20.57;;;10.40;;
73015;SDS011;61893;50.074;14.440;2023-02-11T16:47:54;22.43;;;11.47;;
73015;SDS011;61893;50.074;14.440;2023-02-11T16:50:35;23.00;;;11.43;;
73015;SDS011;61893;50.074;14.440;2023-02-11T16:53:17;25.20;;;12.53;;
73015;SDS011;61893;50.074;14.440;2023-02-11T16:55:50;23.50;;;11.38;;
73015;SDS011;61893;50.074;14.440;2023-02-11T16:58:18;24.53;;;12.03;;
73015;SDS011;61893;50.074;14.440;2023-02-11T17:01:03;19.40;;;10.53;;
73015;SDS011;61893;50.074;14.440;2023-02-11T17:03:46;19.87;;;10.20;;
73015;SDS011;61893;50.074;14.440;2023-02-11T17:06:31;23.08;;;10.73;;
73015;SDS011;61893;50.074;14.440;2023-02-11T17:08:59;25.07;;;11.47;;
73015;SDS011;61893;50.074;14.440;2023-02-11T17:11:25;23.67;;;11.87;;
73015;SDS011;61893;50.074;14.440;2023-02-11T17:13:51;21.80;;;10.97;;
73015;SDS011;61893;50.074;14.440;2023-02-11T17:16:32;20.17;;;10.57;;
73015;SDS011;61893;50.074;14.440;2023-02-11T17:19:19;22.80;;;11.17;;
73015;SDS011;61893;50.074;14.440;2023-02-11T17:22:21;20.90;;;11.30;;
73015;SDS011;61893;50.074;14.440;2023-02-11T17:24:47;19.13;;;11.63;;
73015;SDS011;61893;50.074;14.440;2023-02-11T17:27:28;24.13;;;11.07;;
73015;SDS011;61893;50.074;14.440;2023-02-11T17:30:09;21.60;;;10.77;;
73015;SDS011;61893;50.074;14.440;2023-02-11T17:32:50;22.80;;;11.60;;
73015;SDS011;61893;50.074;14.440;2023-02-11T18:09:10;24.47;;;11.40;;
73015;SDS011;61893;50.074;14.440;2023-02-11T18:12:02;23.50;;;10.73;;
73015;SDS011;61893;50.074;14.440;2023-02-11T18:14:33;22.20;;;11.43;;
73015;SDS011;61893;50.074;14.440;2023-02-11T18:17:21;24.57;;;11.43;;
73015;SDS011;61893;50.074;14.440;2023-02-11T18:19:49;21.77;;;10.67;;
73015;SDS011;61893;50.074;14.440;2023-02-11T18:22:15;24.70;;;12.77;;
73015;SDS011;61893;50.074;14.440;2023-02-11T18:24:57;22.67;;;12.07;;
73015;SDS011;61893;50.074;14.440;2023-02-11T18:27:37;21.37;;;11.43;;
73015;SDS011;61893;50.074;14.440;2023-02-11T18:30:04;24.03;;;11.60;;
73015;SDS011;61893;50.074;14.440;2023-02-11T18:32:31;24.23;;;12.10;;
73015;SDS011;61893;50.074;14.440;2023-02-11T18:34:57;23.70;;;12.13;;
73015;SDS011;61893;50.074;14.440;2023-02-11T18:37:23;25.53;;;12.63;;
73015;SDS011;61893;50.074;14.440;2023-02-11T18:40:04;28.83;;;12.67;;
73015;SDS011;61893;50.074;14.440;2023-02-11T18:42:31;21.07;;;11.70;;
73015;SDS011;61893;50.074;14.440;2023-02-11T18:44:58;24.80;;;12.13;;
73015;SDS011;61893;50.074;14.440;2023-02-11T18:47:26;25.27;;;12.43;;
73015;SDS011;61893;50.074;14.440;2023-02-11T18:49:53;20.93;;;11.40;;
73015;SDS011;61893;50.074;14.440;2023-02-11T18:52:34;23.37;;;11.93;;
73015;SDS011;61893;50.074;14.440;2023-02-11T18:55:18;20.75;;;11.18;;